Time;durP1;ratioP1;P1;durP2;ratioP2;P2;SDS_P1;SDS_P2;PMS_P1;PMS_P2;Temp;Humidity;BMP_temperature;BMP_pressure;BME280_temperature;BME280_humidity;BME280_pressure;Samples;Min_cycle;Max_cycle;Signal;HPM_P1;HPM_P2
2022/03/06 00:01:09;;;;;;;9.00;6.97;;;2.10;98.80;;;;;;5013840;28;20617;-71
2022/03/06 00:03:37;;;;;;;10.23;7.73;;;2.10;98.80;;;;;;5016670;28;20198;-71
2022/03/06 00:06:03;;;;;;;11.17;6.90;;;2.10;98.90;;;;;;5011686;28;20313;-72
2022/03/06 00:08:28;;;;;;;10.93;6.73;;;2.20;98.80;;;;;;5013716;28;20626;-70
2022/03/06 00:10:56;;;;;;;11.77;5.93;;;2.10;99.00;;;;;;5017863;28;20589;-71
2022/03/06 00:13:22;;;;;;;9.90;6.33;;;2.20;99.00;;;;;;5014921;28;20268;-83
2022/03/06 00:15:47;;;;;;;9.83;5.87;;;2.20;99.00;;;;;;5018110;28;20220;-82
2022/03/06 00:18:13;;;;;;;7.13;5.43;;;2.20;98.20;;;;;;5017957;28;20666;-76
2022/03/06 00:20:41;;;;;;;9.10;5.67;;;2.20;97.90;;;;;;5013766;28;20192;-71
2022/03/06 00:23:06;;;;;;;6.43;5.33;;;2.20;98.00;;;;;;5011655;28;20195;-73
2022/03/06 00:25:32;;;;;;;8.37;5.20;;;2.20;98.40;;;;;;5014558;28;20226;-73
2022/03/06 00:27:57;;;;;;;9.73;6.53;;;2.10;98.00;;;;;;5015731;28;20275;-72
2022/03/06 00:30:23;;;;;;;7.97;5.33;;;2.20;98.40;;;;;;4996309;28;20215;-74
2022/03/06 00:32:49;;;;;;;6.30;5.53;;;2.20;98.00;;;;;;5014097;28;20270;-75
2022/03/06 00:35:15;;;;;;;11.60;6.37;;;2.10;97.90;;;;;;5014650;28;20200;-75
2022/03/06 00:37:40;;;;;;;10.77;5.83;;;2.10;98.40;;;;;;5014861;28;20219;-71
2022/03/06 00:40:07;;;;;;;14.63;7.30;;;2.00;98.50;;;;;;5011429;28;20224;-70
2022/03/06 00:42:33;;;;;;;10.13;6.50;;;2.00;98.80;;;;;;5016516;28;20461;-71
2022/03/06 00:44:58;;;;;;;11.27;6.20;;;2.00;98.60;;;;;;5013171;28;20215;-70
2022/03/06 00:47:24;;;;;;;8.17;6.40;;;2.00;98.30;;;;;;5012474;28;20191;-70
2022/03/06 00:49:49;;;;;;;7.20;6.13;;;1.90;98.20;;;;;;5012945;28;20654;-79
2022/03/06 00:52:15;;;;;;;10.70;6.73;;;1.80;98.80;;;;;;5015619;28;20495;-76
2022/03/06 00:54:41;;;;;;;7.63;6.67;;;1.90;99.30;;;;;;5014574;28;20287;-69
2022/03/06 00:57:06;;;;;;;7.50;5.33;;;1.90;99.20;;;;;;5015155;28;20280;-72
2022/03/06 00:59:35;;;;;;;7.77;6.13;;;1.90;98.70;;;;;;5009621;28;20286;-73
2022/03/06 01:02:03;;;;;;;11.40;6.13;;;1.90;98.60;;;;;;5014260;28;20194;-73
2022/03/06 01:04:28;;;;;;;6.93;6.23;;;1.80;98.70;;;;;;5013979;28;20206;-71
2022/03/06 01:06:54;;;;;;;7.77;6.90;;;1.80;98.80;;;;;;5013411;28;20191;-73
2022/03/06 01:09:19;;;;;;;6.63;5.97;;;1.90;98.90;;;;;;5010753;28;20210;-73
2022/03/06 01:11:45;;;;;;;8.57;6.87;;;1.90;98.90;;;;;;5015238;28;20218;-73
2022/03/06 01:14:11;;;;;;;8.50;7.60;;;1.90;98.70;;;;;;5004185;28;20786;-72
2022/03/06 01:16:36;;;;;;;8.77;6.67;;;1.90;98.80;;;;;;5005893;28;20247;-73
2022/03/06 01:19:02;;;;;;;7.17;6.47;;;1.90;98.60;;;;;;5008757;28;20694;-74
2022/03/06 01:21:28;;;;;;;11.50;5.97;;;2.00;98.80;;;;;;5015701;28;20180;-73
2022/03/06 01:23:54;;;;;;;7.23;6.23;;;2.00;98.50;;;;;;5012469;28;20587;-73
2022/03/06 01:26:19;;;;;;;8.07;5.80;;;1.90;98.80;;;;;;5012851;28;20717;-73
2022/03/06 01:28:45;;;;;;;6.67;5.93;;;1.90;99.10;;;;;;5011277;28;20295;-73
2022/03/06 01:31:11;;;;;;;7.97;5.43;;;1.90;98.90;;;;;;4995492;28;20615;-72
2022/03/06 01:33:37;;;;;;;6.37;5.33;;;1.80;99.00;;;;;;5015204;28;20625;-73
2022/03/06 01:36:05;;;;;;;6.50;5.67;;;1.90;99.30;;;;;;5015343;28;20237;-74
2022/03/06 01:38:31;;;;;;;7.17;6.00;;;1.90;99.40;;;;;;5014023;28;20211;-73
2022/03/06 01:40:57;;;;;;;8.93;6.20;;;1.80;99.40;;;;;;4996664;28;20186;-73
2022/03/06 01:43:22;;;;;;;10.73;6.90;;;1.80;99.50;;;;;;5010942;28;20554;-74
2022/03/06 01:45:48;;;;;;;12.37;6.80;;;1.80;99.70;;;;;;5012561;28;20192;-74
2022/03/06 01:48:14;;;;;;;8.00;6.60;;;1.80;99.40;;;;;;5011385;28;20626;-75
2022/03/06 01:50:40;;;;;;;7.50;6.23;;;1.80;99.80;;;;;;5013333;28;20230;-72
2022/03/06 01:53:08;;;;;;;11.33;6.77;;;1.80;99.50;;;;;;5010645;28;20619;-73
2022/03/06 01:55:35;;;;;;;12.53;8.07;;;1.70;99.30;;;;;;5013777;28;20177;-75
2022/03/06 01:58:04;;;;;;;8.67;6.53;;;1.70;99.90;;;;;;4992657;28;20220;-75
2022/03/06 02:00:37;;;;;;;13.13;8.10;;;1.70;99.80;;;;;;5015208;28;21013;-73
2022/03/06 02:03:03;;;;;;;9.50;7.43;;;1.80;99.50;;;;;;5012497;28;20207;-74
2022/03/06 02:05:29;;;;;;;9.87;7.47;;;1.80;99.50;;;;;;5018313;28;20184;-69
2022/03/06 02:07:54;;;;;;;11.30;7.50;;;1.80;99.30;;;;;;5014264;28;20547;-69
2022/03/06 02:10:20;;;;;;;10.03;6.97;;;1.80;99.50;;;;;;5014851;28;20287;-69
2022/03/06 02:12:46;;;;;;;9.83;6.70;;;1.80;99.70;;;;;;5002794;28;20224;-69
2022/03/06 02:15:13;;;;;;;10.07;7.23;;;1.90;99.40;;;;;;5009116;28;20520;-69
2022/03/06 02:17:39;;;;;;;11.97;8.13;;;1.80;99.60;;;;;;5002382;28;20199;-67
2022/03/06 02:20:20;;;;;;;9.53;7.70;;;1.90;99.60;;;;;;5008825;28;20283;-68
2022/03/06 02:22:48;;;;;;;7.80;6.60;;;1.90;99.50;;;;;;5000594;28;20249;-68
2022/03/06 02:25:15;;;;;;;8.80;6.80;;;1.90;99.50;;;;;;5005849;28;20899;-68
2022/03/06 02:27:41;;;;;;;8.13;6.83;;;1.90;99.80;;;;;;5019101;28;20247;-72
2022/03/06 02:30:12;;;;;;;9.57;7.20;;;1.90;99.60;;;;;;5004569;28;20184;-66
2022/03/06 02:32:38;;;;;;;10.53;6.30;;;2.00;99.30;;;;;;5009345;28;20281;-69
2022/03/06 02:35:05;;;;;;;9.10;6.97;;;1.90;99.00;;;;;;5010959;28;20227;-73
2022/03/06 02:37:31;;;;;;;8.30;6.20;;;1.80;98.70;;;;;;5010282;28;20207;-66
2022/03/06 02:40:00;;;;;;;9.27;6.93;;;1.80;99.20;;;;;;5014789;28;20756;-66
2022/03/06 02:42:31;;;;;;;9.47;6.47;;;1.80;99.30;;;;;;5019111;28;20202;-67
2022/03/06 02:44:58;;;;;;;8.07;6.23;;;1.90;99.10;;;;;;5007268;28;20214;-68
2022/03/06 02:47:24;;;;;;;9.50;6.60;;;1.90;99.30;;;;;;5013238;28;20199;-70
2022/03/06 02:49:51;;;;;;;10.17;7.20;;;1.90;99.10;;;;;;5025834;28;20690;-72
2022/03/06 02:52:17;;;;;;;7.50;6.63;;;1.90;99.00;;;;;;4999498;28;20215;-69
2022/03/06 02:54:43;;;;;;;6.03;5.47;;;1.90;98.50;;;;;;5008724;28;20211;-68
2022/03/06 02:57:08;;;;;;;10.57;6.57;;;1.80;98.80;;;;;;5019622;28;20199;-68
2022/03/06 02:59:34;;;;;;;7.53;5.80;;;1.90;99.00;;;;;;5012648;28;20207;-70
2022/03/06 03:02:00;;;;;;;9.60;6.50;;;2.00;98.80;;;;;;5022641;28;20241;-70
2022/03/06 03:04:25;;;;;;;10.27;6.23;;;1.90;98.30;;;;;;5005295;28;20196;-68
2022/03/06 03:06:52;;;;;;;8.73;6.10;;;1.80;97.70;;;;;;5020637;28;20294;-66
2022/03/06 03:09:22;;;;;;;7.43;5.83;;;1.70;97.60;;;;;;5016743;28;20744;-66
2022/03/06 03:11:50;;;;;;;9.00;6.07;;;1.70;97.70;;;;;;5012096;28;20623;-70
2022/03/06 03:14:16;;;;;;;8.50;6.13;;;1.70;97.90;;;;;;5010676;28;20202;-68
2022/03/06 03:16:42;;;;;;;6.83;4.83;;;1.70;97.90;;;;;;5008508;28;20188;-70
2022/03/06 03:19:08;;;;;;;8.00;6.03;;;1.80;98.00;;;;;;5011424;28;20199;-69
2022/03/06 03:21:33;;;;;;;8.57;6.33;;;1.80;97.80;;;;;;5008105;28;20234;-65
2022/03/06 03:23:59;;;;;;;7.47;5.73;;;1.90;97.50;;;;;;5010128;28;20198;-68
2022/03/06 03:26:25;;;;;;;9.10;5.27;;;1.80;97.40;;;;;;5015503;28;20222;-63
2022/03/06 03:28:51;;;;;;;4.77;4.33;;;1.80;97.10;;;;;;5017981;28;20215;-67
2022/03/06 03:31:17;;;;;;;11.30;6.27;;;1.80;97.10;;;;;;5015634;28;20679;-68
2022/03/06 03:33:42;;;;;;;13.73;6.93;;;1.80;97.20;;;;;;5012581;28;20208;-69
2022/03/06 03:36:09;;;;;;;7.07;5.07;;;1.80;97.40;;;;;;5015081;28;20651;-70
2022/03/06 03:38:34;;;;;;;7.73;4.83;;;1.80;97.30;;;;;;5018422;28;20196;-69
2022/03/06 03:41:01;;;;;;;7.37;4.73;;;1.80;97.20;;;;;;5006898;28;20593;-72
2022/03/06 03:43:28;;;;;;;5.80;4.80;;;1.80;97.10;;;;;;5012022;28;20200;-72
2022/03/06 03:45:53;;;;;;;10.83;5.23;;;1.80;97.40;;;;;;5018022;28;20193;-75
2022/03/06 03:48:19;;;;;;;7.17;3.73;;;1.70;96.70;;;;;;5019268;28;20221;-82
2022/03/06 03:50:45;;;;;;;9.63;4.27;;;1.80;96.80;;;;;;5007641;28;20216;-74
2022/03/06 03:53:10;;;;;;;5.30;3.40;;;1.80;97.10;;;;;;5014939;28;20235;-74
2022/03/06 03:55:36;;;;;;;5.00;3.73;;;1.80;96.90;;;;;;5008190;28;20219;-69
2022/03/06 03:58:02;;;;;;;3.87;3.40;;;1.90;97.10;;;;;;5016801;28;20192;-71
2022/03/06 04:00:27;;;;;;;5.00;3.87;;;1.80;97.10;;;;;;5018434;28;20184;-71
2022/03/06 04:02:53;;;;;;;4.80;3.40;;;1.90;97.10;;;;;;5016096;28;20286;-72
2022/03/06 04:05:18;;;;;;;4.60;3.60;;;1.90;97.20;;;;;;5024249;28;20725;-75
2022/03/06 04:07:44;;;;;;;5.17;3.40;;;1.90;96.90;;;;;;5014620;28;20239;-75
2022/03/06 04:10:09;;;;;;;4.10;3.17;;;1.90;96.50;;;;;;5023372;28;20221;-82
2022/03/06 04:12:35;;;;;;;3.60;3.00;;;1.90;96.90;;;;;;5020871;28;20223;-76
2022/03/06 04:15:00;;;;;;;4.33;3.40;;;1.90;96.40;;;;;;5022759;28;20654;-77
2022/03/06 04:17:26;;;;;;;3.03;2.73;;;2.00;96.90;;;;;;5014847;28;20850;-70
2022/03/06 04:19:51;;;;;;;4.87;3.57;;;1.80;95.70;;;;;;5014491;28;20187;-70
2022/03/06 04:22:17;;;;;;;4.97;3.67;;;1.80;95.70;;;;;;5010366;28;20768;-70
2022/03/06 04:24:42;;;;;;;5.23;3.80;;;1.90;95.80;;;;;;5011887;28;20244;-70
2022/03/06 04:27:08;;;;;;;5.27;3.73;;;1.80;95.40;;;;;;5015795;28;20199;-72
2022/03/06 04:29:33;;;;;;;8.30;3.80;;;1.70;95.40;;;;;;5014089;28;20947;-72
2022/03/06 04:31:59;;;;;;;4.70;3.47;;;1.80;95.90;;;;;;5015678;28;20658;-73
2022/03/06 04:34:24;;;;;;;4.53;3.80;;;1.80;95.70;;;;;;5010520;28;20184;-73
2022/03/06 04:36:50;;;;;;;7.10;4.57;;;1.80;95.20;;;;;;5005973;28;20192;-73
2022/03/06 04:39:15;;;;;;;6.37;4.83;;;1.80;94.70;;;;;;5007402;28;20186;-72
2022/03/06 04:41:41;;;;;;;4.87;3.97;;;1.80;95.20;;;;;;5004931;28;20261;-72
2022/03/06 04:44:06;;;;;;;6.83;4.80;;;1.70;94.40;;;;;;5016844;28;20623;-73
2022/03/06 04:46:32;;;;;;;5.93;5.17;;;1.70;93.70;;;;;;5006867;28;20195;-72
2022/03/06 04:48:58;;;;;;;9.30;5.20;;;1.70;94.50;;;;;;5014842;28;20215;-73
2022/03/06 04:51:23;;;;;;;7.97;4.87;;;1.70;94.50;;;;;;5007089;28;20215;-73
2022/03/06 04:53:49;;;;;;;7.03;5.33;;;1.80;94.50;;;;;;5011226;28;20305;-72
2022/03/06 04:56:14;;;;;;;8.20;4.60;;;1.80;94.60;;;;;;5013643;28;20188;-73
2022/03/06 04:58:40;;;;;;;6.67;4.67;;;1.90;94.00;;;;;;5018972;28;20217;-72
2022/03/06 05:01:06;;;;;;;5.93;5.33;;;2.00;93.50;;;;;;5006679;28;20221;-73
2022/03/06 05:03:32;;;;;;;8.40;5.40;;;2.00;93.20;;;;;;5014230;28;20671;-72
2022/03/06 05:05:57;;;;;;;7.57;5.53;;;2.00;92.90;;;;;;5007147;28;20206;-71
2022/03/06 05:08:26;;;;;;;7.07;5.77;;;1.90;92.50;;;;;;5010951;28;20197;-71
2022/03/06 05:10:51;;;;;;;8.57;5.50;;;1.90;92.10;;;;;;5006542;28;20199;-71
2022/03/06 05:13:17;;;;;;;6.63;5.20;;;1.90;92.20;;;;;;5013658;28;20336;-70
2022/03/06 05:15:42;;;;;;;5.67;4.97;;;1.90;92.00;;;;;;5009058;28;20193;-72
2022/03/06 05:18:07;;;;;;;8.83;6.07;;;1.90;92.20;;;;;;5017211;28;20682;-70
2022/03/06 05:20:33;;;;;;;6.57;5.40;;;1.80;91.60;;;;;;5006532;28;20242;-71
2022/03/06 05:22:59;;;;;;;5.83;5.33;;;1.80;92.20;;;;;;5014807;28;20203;-70
2022/03/06 05:25:25;;;;;;;9.13;5.80;;;1.90;92.80;;;;;;5015903;28;20799;-70
2022/03/06 05:27:50;;;;;;;6.70;4.73;;;1.90;92.50;;;;;;5014502;28;20242;-71
2022/03/06 05:30:16;;;;;;;6.67;5.37;;;2.00;92.70;;;;;;5004557;28;20192;-71
2022/03/06 05:32:43;;;;;;;6.37;5.80;;;2.10;92.90;;;;;;5012869;28;20218;-71
2022/03/06 05:35:10;;;;;;;7.93;5.33;;;2.10;92.20;;;;;;5022763;28;20217;-72
2022/03/06 05:37:39;;;;;;;7.20;5.70;;;2.10;92.10;;;;;;5011228;28;20291;-71
2022/03/06 05:40:06;;;;;;;6.03;5.37;;;2.10;91.80;;;;;;5005505;28;20200;-72
2022/03/06 05:42:31;;;;;;;8.10;5.40;;;2.00;91.60;;;;;;5009166;28;20203;-72
2022/03/06 05:44:57;;;;;;;7.70;5.27;;;2.00;91.70;;;;;;5012594;28;20191;-72
2022/03/06 05:47:22;;;;;;;6.70;5.83;;;2.00;91.90;;;;;;5020921;28;20193;-71
2022/03/06 05:49:48;;;;;;;7.53;5.70;;;1.90;92.20;;;;;;5017611;28;20196;-71
2022/03/06 05:52:13;;;;;;;7.90;5.83;;;2.00;92.70;;;;;;5015269;28;20701;-71
2022/03/06 05:54:38;;;;;;;7.93;6.37;;;2.00;92.30;;;;;;5010888;28;20209;-71
2022/03/06 05:57:04;;;;;;;7.17;5.83;;;2.10;92.50;;;;;;5007013;28;20253;-71
2022/03/06 05:59:30;;;;;;;8.57;6.07;;;2.20;92.70;;;;;;5012400;28;20187;-71
2022/03/06 06:01:55;;;;;;;7.97;5.73;;;2.20;91.90;;;;;;5005014;28;20721;-71
2022/03/06 06:04:21;;;;;;;12.40;6.53;;;2.10;91.40;;;;;;5014085;28;20186;-71
2022/03/06 06:06:46;;;;;;;5.93;5.07;;;2.00;91.60;;;;;;5004557;28;20209;-71
2022/03/06 06:09:12;;;;;;;8.70;6.80;;;2.00;91.90;;;;;;5025480;28;20178;-71
2022/03/06 06:11:37;;;;;;;8.17;6.63;;;2.10;92.40;;;;;;5006076;28;20630;-71
2022/03/06 06:14:03;;;;;;;8.73;5.80;;;2.10;91.70;;;;;;5014489;28;20298;-72
2022/03/06 06:16:30;;;;;;;6.63;5.77;;;2.10;92.10;;;;;;5011203;28;20200;-72
2022/03/06 06:18:56;;;;;;;6.17;5.07;;;2.20;92.10;;;;;;5022861;28;20195;-71
2022/03/06 06:21:21;;;;;;;6.53;5.50;;;2.20;91.50;;;;;;5021236;28;20212;-71
2022/03/06 06:23:47;;;;;;;7.90;6.03;;;2.10;91.80;;;;;;5015160;28;20205;-71
2022/03/06 06:26:12;;;;;;;6.00;5.33;;;2.20;91.40;;;;;;5020600;28;20711;-71
2022/03/06 06:28:38;;;;;;;8.93;5.87;;;2.10;92.00;;;;;;5013050;28;20251;-71
2022/03/06 06:31:06;;;;;;;7.67;6.13;;;2.20;91.90;;;;;;5015449;28;20226;-71
2022/03/06 06:33:31;;;;;;;8.47;6.77;;;2.20;92.10;;;;;;5016936;28;20746;-71
2022/03/06 06:35:57;;;;;;;10.60;6.37;;;2.30;92.20;;;;;;5019046;28;20306;-72
2022/03/06 06:38:22;;;;;;;10.23;6.63;;;2.30;91.90;;;;;;5014785;28;20203;-72
2022/03/06 06:40:49;;;;;;;14.20;6.83;;;2.30;91.90;;;;;;5018322;28;20200;-72
2022/03/06 06:43:15;;;;;;;8.07;5.77;;;2.20;92.20;;;;;;5013208;28;20211;-72
2022/03/06 06:45:41;;;;;;;8.67;6.67;;;2.30;92.10;;;;;;5005051;28;20270;-72
2022/03/06 06:48:06;;;;;;;9.97;6.40;;;2.30;92.20;;;;;;5008020;28;20662;-72
2022/03/06 06:50:33;;;;;;;7.17;6.43;;;2.40;92.20;;;;;;5006290;28;20268;-72
2022/03/06 06:52:58;;;;;;;7.47;6.37;;;2.50;92.50;;;;;;5003736;28;20227;-72
2022/03/06 06:55:24;;;;;;;8.50;6.57;;;2.50;91.90;;;;;;5009294;28;20682;-72
2022/03/06 06:57:49;;;;;;;9.80;7.23;;;2.50;91.40;;;;;;5003744;28;20215;-71
2022/03/06 07:00:15;;;;;;;6.70;6.00;;;2.50;91.60;;;;;;5009005;28;20196;-72
2022/03/06 07:02:42;;;;;;;9.83;7.10;;;2.50;91.40;;;;;;5003813;28;20204;-75
2022/03/06 07:05:10;;;;;;;9.87;7.50;;;2.60;91.40;;;;;;5011736;28;20264;-75
2022/03/06 07:07:36;;;;;;;9.17;7.53;;;2.60;91.30;;;;;;5013880;28;20197;-73
2022/03/06 07:10:04;;;;;;;7.53;6.33;;;2.60;91.20;;;;;;5019629;28;20260;-74
2022/03/06 07:12:29;;;;;;;8.03;7.33;;;2.60;91.40;;;;;;5010086;28;20218;-75
2022/03/06 07:14:55;;;;;;;9.53;6.77;;;2.50;90.50;;;;;;5008721;28;20286;-74
2022/03/06 07:17:20;;;;;;;8.17;6.10;;;2.50;91.20;;;;;;5003854;28;20195;-75
2022/03/06 07:19:46;;;;;;;8.07;6.73;;;2.50;91.10;;;;;;5017173;28;20196;-75
2022/03/06 07:22:11;;;;;;;8.97;7.33;;;2.50;91.30;;;;;;5007966;28;20928;-75
2022/03/06 07:24:37;;;;;;;9.03;7.30;;;2.50;90.20;;;;;;5013512;28;20215;-72
2022/03/06 07:27:02;;;;;;;7.27;6.47;;;2.40;90.60;;;;;;5012338;28;20210;-72
2022/03/06 07:29:28;;;;;;;6.93;6.33;;;2.20;90.50;;;;;;5017059;28;20920;-72
2022/03/06 07:31:53;;;;;;;7.60;6.63;;;2.40;90.40;;;;;;5006434;28;20353;-73
2022/03/06 07:34:19;;;;;;;7.50;6.80;;;2.30;90.40;;;;;;5016397;28;20215;-73
2022/03/06 07:36:44;;;;;;;8.33;7.17;;;2.40;91.00;;;;;;5014697;28;20550;-71
2022/03/06 07:39:10;;;;;;;9.03;7.23;;;2.50;91.00;;;;;;5017846;28;20288;-70
2022/03/06 07:41:35;;;;;;;7.73;6.83;;;2.50;90.80;;;;;;5017392;28;20283;-70
2022/03/06 07:44:00;;;;;;;7.03;6.40;;;2.50;90.50;;;;;;5016350;28;20580;-71
2022/03/06 07:46:26;;;;;;;7.07;6.37;;;2.30;90.90;;;;;;5015995;28;20238;-72
2022/03/06 07:48:51;;;;;;;7.20;6.50;;;2.50;91.30;;;;;;4995569;28;20200;-76
2022/03/06 07:51:19;;;;;;;9.43;6.53;;;2.50;90.90;;;;;;5016041;28;20233;-79
2022/03/06 07:53:44;;;;;;;8.23;7.40;;;2.60;91.20;;;;;;5012723;28;20296;-73
2022/03/06 07:56:10;;;;;;;9.30;8.00;;;2.60;90.80;;;;;;5015161;28;20270;-77
2022/03/06 07:58:35;;;;;;;7.97;7.27;;;2.40;91.20;;;;;;5011189;28;20290;-75
2022/03/06 08:01:01;;;;;;;8.67;6.73;;;2.50;91.50;;;;;;5016052;28;20212;-71
2022/03/06 08:03:26;;;;;;;7.57;6.70;;;2.50;91.50;;;;;;5013773;28;20214;-70
2022/03/06 08:05:51;;;;;;;7.70;6.97;;;2.50;91.30;;;;;;5007935;28;20201;-71
2022/03/06 08:08:17;;;;;;;7.40;6.57;;;2.50;92.00;;;;;;5015586;28;20684;-72
2022/03/06 08:10:42;;;;;;;9.57;7.27;;;2.60;91.70;;;;;;5007583;28;20192;-72
2022/03/06 08:13:08;;;;;;;8.67;7.73;;;2.70;91.30;;;;;;5017627;28;20218;-71
2022/03/06 08:15:33;;;;;;;8.80;7.27;;;2.60;91.40;;;;;;5024619;28;20235;-74
2022/03/06 08:17:59;;;;;;;7.50;6.80;;;2.50;91.20;;;;;;5015970;28;20195;-73
2022/03/06 08:20:25;;;;;;;7.80;7.10;;;2.50;91.40;;;;;;5016056;28;20868;-72
2022/03/06 08:22:50;;;;;;;9.50;7.27;;;2.60;91.60;;;;;;5005329;28;20210;-75
2022/03/06 08:25:19;;;;;;;7.60;7.00;;;2.60;91.80;;;;;;5008755;28;21016;-68
2022/03/06 08:27:44;;;;;;;8.03;7.33;;;2.70;91.90;;;;;;5016293;28;20220;-69
2022/03/06 08:30:10;;;;;;;7.73;7.03;;;2.60;91.80;;;;;;5013522;28;20277;-76
2022/03/06 08:32:37;;;;;;;7.33;6.63;;;2.60;91.60;;;;;;5023864;28;20691;-76
2022/03/06 08:35:03;;;;;;;8.13;7.43;;;2.60;91.80;;;;;;5013416;28;20180;-74
2022/03/06 08:37:29;;;;;;;8.10;7.07;;;2.70;92.20;;;;;;5011506;28;20203;-71
2022/03/06 08:39:54;;;;;;;8.33;6.57;;;2.50;91.50;;;;;;5019463;28;20198;-79
2022/03/06 08:42:20;;;;;;;7.67;6.90;;;2.40;92.10;;;;;;5018107;28;20223;-77
2022/03/06 08:44:46;;;;;;;7.10;6.40;;;2.30;92.50;;;;;;5022373;28;20217;-81
2022/03/06 08:47:11;;;;;;;10.27;7.43;;;2.40;93.00;;;;;;5011932;28;20206;-79
2022/03/06 08:49:37;;;;;;;11.33;6.97;;;2.50;92.60;;;;;;5015056;28;20258;-75
2022/03/06 08:52:02;;;;;;;6.63;6.00;;;2.50;92.50;;;;;;5011621;28;20212;-69
2022/03/06 08:54:28;;;;;;;7.23;6.43;;;2.50;92.70;;;;;;5019445;28;20182;-71
2022/03/06 08:56:54;;;;;;;6.97;6.20;;;2.60;92.90;;;;;;5011349;28;20234;-71
2022/03/06 08:59:20;;;;;;;6.37;5.73;;;2.70;92.60;;;;;;5018046;28;20867;-72
2022/03/06 09:01:46;;;;;;;6.20;5.60;;;2.70;93.00;;;;;;5017754;28;20210;-72
2022/03/06 09:04:13;;;;;;;5.60;5.03;;;2.70;92.60;;;;;;5017466;28;20646;-71
2022/03/06 09:06:39;;;;;;;5.63;5.13;;;2.80;92.70;;;;;;5015040;28;20200;-75
2022/03/06 09:09:04;;;;;;;4.93;4.53;;;2.70;92.60;;;;;;5012291;28;20204;-74
2022/03/06 09:11:30;;;;;;;5.37;4.87;;;2.80;92.70;;;;;;5014641;28;20353;-72
2022/03/06 09:13:59;;;;;;;6.17;4.73;;;2.70;92.50;;;;;;5016311;28;20205;-72
2022/03/06 09:16:25;;;;;;;6.40;4.77;;;2.80;92.70;;;;;;5015137;28;20271;-74
2022/03/06 09:18:50;;;;;;;4.83;4.23;;;2.90;92.70;;;;;;5017875;28;20569;-73
2022/03/06 09:21:16;;;;;;;5.63;5.07;;;2.70;92.40;;;;;;5010944;28;20290;-78
2022/03/06 09:23:41;;;;;;;5.67;4.53;;;2.50;92.80;;;;;;5009747;28;20543;-74
2022/03/06 09:26:07;;;;;;;5.43;4.53;;;2.40;92.90;;;;;;5012721;28;20231;-72
2022/03/06 09:28:32;;;;;;;4.80;4.10;;;2.60;92.90;;;;;;5014813;28;20681;-73
2022/03/06 09:30:58;;;;;;;7.30;4.40;;;2.70;92.50;;;;;;5017164;28;20215;-74
2022/03/06 09:33:23;;;;;;;5.80;4.23;;;2.90;92.80;;;;;;5013162;28;20227;-83
2022/03/06 09:35:49;;;;;;;4.97;4.17;;;3.00;92.70;;;;;;5017158;28;20219;-83
2022/03/06 09:38:15;;;;;;;9.87;5.13;;;3.00;92.20;;;;;;5014726;28;20200;-87
2022/03/06 09:40:43;;;;;;;5.77;3.87;;;2.90;91.70;;;;;;5015513;28;20190;-83
2022/03/06 09:43:15;;;;;;;4.00;3.53;;;2.90;92.00;;;;;;5017316;28;20211;-78
2022/03/06 09:45:42;;;;;;;4.53;4.00;;;3.00;92.00;;;;;;5012563;28;20199;-74
2022/03/06 09:48:09;;;;;;;8.43;4.73;;;3.10;92.20;;;;;;5009729;28;20210;-70
2022/03/06 09:50:35;;;;;;;5.17;4.77;;;3.10;92.00;;;;;;5015422;28;20657;-72
2022/03/06 09:53:01;;;;;;;4.00;3.70;;;2.90;91.70;;;;;;5012113;28;20219;-73
2022/03/06 09:55:28;;;;;;;4.50;3.87;;;3.00;91.70;;;;;;5015213;28;20256;-74
2022/03/06 09:57:55;;;;;;;4.97;4.47;;;2.90;91.80;;;;;;5011151;28;20533;-81
2022/03/06 10:00:21;;;;;;;6.07;3.93;;;2.90;92.00;;;;;;5017764;28;20191;-78
2022/03/06 10:03:01;;;;;;;4.43;3.60;;;2.90;92.00;;;;;;5013315;28;20955;-83
2022/03/06 10:05:36;;;;;;;4.07;3.70;;;3.00;92.40;;;;;;5012885;28;20230;-72
2022/03/06 10:08:28;;;;;;;4.03;3.63;;;3.10;92.50;;;;;;5010349;28;20293;-71
2022/03/06 10:11:03;;;;;;;4.27;3.97;;;3.20;91.90;;;;;;5015052;28;20187;-71
2022/03/06 10:13:31;;;;;;;4.67;3.93;;;3.00;91.20;;;;;;5012800;28;20584;-77
2022/03/06 10:16:09;;;;;;;4.30;4.00;;;3.00;91.70;;;;;;5010470;28;20195;-78
2022/03/06 10:18:44;;;;;;;4.30;4.00;;;3.10;91.30;;;;;;5010919;28;20561;-79
2022/03/06 10:21:11;;;;;;;5.00;3.83;;;3.20;91.30;;;;;;5014617;28;20234;-82
2022/03/06 10:23:37;;;;;;;6.20;3.87;;;3.10;90.70;;;;;;5012763;28;20917;-73
2022/03/06 10:26:04;;;;;;;5.63;4.03;;;3.10;90.80;;;;;;5015323;28;20310;-74
2022/03/06 10:28:30;;;;;;;4.80;4.40;;;2.90;90.90;;;;;;5012614;28;20570;-71
2022/03/06 10:31:04;;;;;;;5.50;4.87;;;2.90;91.30;;;;;;5015497;28;20190;-71
2022/03/06 10:33:29;;;;;;;5.17;4.63;;;3.00;90.80;;;;;;5012317;28;20225;-72
2022/03/06 10:35:58;;;;;;;5.30;4.57;;;2.90;90.00;;;;;;5014769;28;20179;-71
2022/03/06 10:38:27;;;;;;;5.03;4.47;;;2.90;88.00;;;;;;5005935;28;20218;-72
2022/03/06 10:41:00;;;;;;;4.83;4.47;;;3.00;88.80;;;;;;5012315;28;20192;-73
2022/03/06 10:43:32;;;;;;;4.93;4.37;;;3.20;89.40;;;;;;5012358;28;20223;-70
2022/03/06 10:46:15;;;;;;;4.90;4.50;;;3.30;87.50;;;;;;5013365;28;20286;-77
2022/03/06 10:48:43;;;;;;;5.77;5.23;;;3.30;87.50;;;;;;5011955;28;20574;-76
2022/03/06 10:51:13;;;;;;;4.63;4.27;;;3.30;86.90;;;;;;5014874;28;20412;-71
2022/03/06 10:53:39;;;;;;;5.00;4.60;;;3.30;87.10;;;;;;5011559;28;20282;-70
2022/03/06 10:56:10;;;;;;;5.73;4.33;;;3.40;86.50;;;;;;5011423;28;20197;-70
2022/03/06 10:58:43;;;;;;;5.33;4.83;;;3.20;85.80;;;;;;5013264;28;20236;-73
2022/03/06 11:01:09;;;;;;;5.23;4.83;;;3.10;87.40;;;;;;5015941;28;20195;-82
2022/03/06 11:03:36;;;;;;;5.50;4.90;;;3.30;86.00;;;;;;5018084;28;20200;-76
2022/03/06 11:06:07;;;;;;;4.93;4.37;;;3.40;85.80;;;;;;5019147;28;20240;-78
2022/03/06 11:08:34;;;;;;;8.70;4.73;;;3.50;85.70;;;;;;5016769;28;20208;-75
2022/03/06 11:11:00;;;;;;;4.53;4.13;;;3.30;86.40;;;;;;5018808;28;20179;-80
2022/03/06 11:13:28;;;;;;;7.63;4.90;;;3.50;86.10;;;;;;5009909;28;20207;-71
2022/03/06 11:15:54;;;;;;;4.80;4.40;;;3.60;84.90;;;;;;5018463;28;20192;-71
2022/03/06 11:18:20;;;;;;;6.27;5.03;;;3.60;83.70;;;;;;5012185;28;20195;-75
2022/03/06 11:20:46;;;;;;;5.03;4.63;;;3.50;82.60;;;;;;5015885;28;20249;-72
2022/03/06 11:23:21;;;;;;;4.93;4.53;;;3.50;83.10;;;;;;5017051;28;20566;-73
2022/03/06 11:26:03;;;;;;;5.17;4.67;;;3.60;82.60;;;;;;5013672;28;20234;-70
2022/03/06 11:28:43;;;;;;;4.37;4.00;;;3.60;83.10;;;;;;5013562;28;20238;-78
2022/03/06 11:31:13;;;;;;;4.70;4.30;;;3.80;81.70;;;;;;5017784;28;20640;-81
2022/03/06 11:33:42;;;;;;;5.33;4.83;;;3.80;80.70;;;;;;5015697;28;20566;-71
2022/03/06 11:36:19;;;;;;;5.27;4.73;;;3.80;80.00;;;;;;5018503;28;20184;-70
2022/03/06 11:38:48;;;;;;;5.33;4.47;;;3.80;80.20;;;;;;5017704;28;20242;-69
2022/03/06 11:41:14;;;;;;;5.37;4.87;;;3.90;79.90;;;;;;5007997;28;20316;-68
2022/03/06 11:43:46;;;;;;;5.07;4.30;;;4.00;79.70;;;;;;5015316;28;20213;-68
2022/03/06 11:46:25;;;;;;;5.27;4.67;;;4.20;77.40;;;;;;5011826;28;20635;-71
2022/03/06 11:48:50;;;;;;;5.50;4.67;;;4.60;77.40;;;;;;5018469;28;20192;-78
2022/03/06 11:51:21;;;;;;;5.40;4.67;;;4.90;74.20;;;;;;5014998;28;20670;-76
2022/03/06 11:54:12;;;;;;;5.07;4.67;;;5.10;75.20;;;;;;5011528;28;20200;-71
2022/03/06 11:56:37;;;;;;;4.50;4.20;;;5.20;74.70;;;;;;5017987;28;20190;-71
2022/03/06 11:59:19;;;;;;;4.30;4.00;;;5.20;72.00;;;;;;5005977;28;20200;-69
2022/03/06 12:01:48;;;;;;;6.37;4.93;;;4.60;74.40;;;;;;5006195;28;20705;-69
2022/03/06 12:04:15;;;;;;;4.13;3.83;;;4.80;72.90;;;;;;5016404;28;20199;-69
2022/03/06 12:06:42;;;;;;;4.37;3.60;;;4.90;74.10;;;;;;5005345;28;20199;-69
2022/03/06 12:09:15;;;;;;;4.00;3.70;;;5.00;73.20;;;;;;5022393;28;20183;-68
2022/03/06 12:11:41;;;;;;;6.93;3.90;;;4.90;71.00;;;;;;5021722;28;20277;-69
2022/03/06 12:14:17;;;;;;;3.77;3.50;;;4.80;72.40;;;;;;5020437;28;20289;-68
2022/03/06 12:17:07;;;;;;;6.20;3.17;;;4.80;72.40;;;;;;5009976;28;20940;-71
2022/03/06 12:19:54;;;;;;;3.90;3.53;;;4.80;72.50;;;;;;5016819;28;20249;-71
2022/03/06 12:22:28;;;;;;;3.70;3.40;;;4.70;73.70;;;;;;5008850;28;20215;-72
2022/03/06 12:25:06;;;;;;;3.07;2.80;;;4.60;74.30;;;;;;5015810;28;20229;-73
2022/03/06 12:27:32;;;;;;;3.93;2.90;;;4.60;74.40;;;;;;5005864;28;20188;-75
2022/03/06 12:29:59;;;;;;;3.20;2.90;;;4.60;74.70;;;;;;5014446;28;20184;-81
2022/03/06 12:32:25;;;;;;;2.73;2.53;;;4.50;73.40;;;;;;5013722;28;20253;-73
2022/03/06 12:35:01;;;;;;;2.20;2.10;;;4.40;73.80;;;;;;5015684;28;20207;-77
2022/03/06 12:37:29;;;;;;;2.63;2.43;;;4.30;74.50;;;;;;5012954;28;20392;-69
2022/03/06 12:39:55;;;;;;;3.20;2.90;;;4.20;74.80;;;;;;5014728;28;20634;-69
2022/03/06 12:42:25;;;;;;;2.70;2.30;;;4.00;75.70;;;;;;5010747;28;20988;-69
2022/03/06 12:45:01;;;;;;;3.93;2.50;;;4.10;75.90;;;;;;5018616;28;20208;-73
2022/03/06 12:47:28;;;;;;;2.80;1.80;;;3.90;76.70;;;;;;5007136;28;20213;-70
2022/03/06 12:49:54;;;;;;;2.30;2.10;;;4.10;77.80;;;;;;5016883;28;20227;-68
2022/03/06 12:52:22;;;;;;;2.00;1.90;;;4.20;77.90;;;;;;5006417;28;20203;-69
2022/03/06 12:54:50;;;;;;;1.90;1.80;;;4.20;76.30;;;;;;5002213;28;20673;-69